sensor_id;sensor_type;location;lat;lon;timestamp;P1;durP1;ratioP1;P2;durP2;ratioP2
21432;SDS011;18592;49.708;10.900;2023-07-20T00:01:15;3.45;;;2.90;;
21432;SDS011;18592;49.708;10.900;2023-07-20T00:03:15;4.03;;;2.63;;
21432;SDS011;18592;49.708;10.900;2023-07-20T00:05:19;3.92;;;2.20;;
21432;SDS011;18592;49.708;10.900;2023-07-20T00:07:21;3.83;;;2.30;;
21432;SDS011;18592;49.708;10.900;2023-07-20T00:09:21;3.28;;;2.20;;
21432;SDS011;18592;49.708;10.900;2023-07-20T00:11:25;3.55;;;2.35;;
21432;SDS011;18592;49.708;10.900;2023-07-20T00:13:27;3.00;;;2.40;;
21432;SDS011;18592;49.708;10.900;2023-07-20T00:15:28;4.13;;;2.53;;
21432;SDS011;18592;49.708;10.900;2023-07-20T00:17:28;4.18;;;2.63;;
21432;SDS011;18592;49.708;10.900;2023-07-20T00:19:28;3.67;;;2.67;;
21432;SDS011;18592;49.708;10.900;2023-07-20T00:21:29;4.30;;;2.55;;
21432;SDS011;18592;49.708;10.900;2023-07-20T00:23:30;3.80;;;2.70;;
21432;SDS011;18592;49.708;10.900;2023-07-20T00:25:36;4.38;;;2.47;;
21432;SDS011;18592;49.708;10.900;2023-07-20T00:27:37;3.55;;;2.63;;
21432;SDS011;18592;49.708;10.900;2023-07-20T00:29:37;3.17;;;2.50;;
21432;SDS011;18592;49.708;10.900;2023-07-20T00:31:38;4.72;;;2.80;;
21432;SDS011;18592;49.708;10.900;2023-07-20T00:33:38;4.03;;;2.60;;
21432;SDS011;18592;49.708;10.900;2023-07-20T00:35:39;4.60;;;2.80;;
21432;SDS011;18592;49.708;10.900;2023-07-20T00:37:39;3.55;;;2.63;;
21432;SDS011;18592;49.708;10.900;2023-07-20T00:39:40;3.60;;;2.70;;
21432;SDS011;18592;49.708;10.900;2023-07-20T00:41:40;4.05;;;2.80;;
21432;SDS011;18592;49.708;10.900;2023-07-20T00:43:41;4.65;;;2.80;;
21432;SDS011;18592;49.708;10.900;2023-07-20T00:45:41;3.50;;;2.85;;
21432;SDS011;18592;49.708;10.900;2023-07-20T00:47:42;4.15;;;2.60;;
21432;SDS011;18592;49.708;10.900;2023-07-20T00:49:43;3.17;;;2.53;;
21432;SDS011;18592;49.708;10.900;2023-07-20T00:51:44;2.97;;;2.50;;
21432;SDS011;18592;49.708;10.900;2023-07-20T00:53:44;3.10;;;2.45;;
21432;SDS011;18592;49.708;10.900;2023-07-20T00:55:44;3.08;;;2.55;;
21432;SDS011;18592;49.708;10.900;2023-07-20T00:57:45;2.28;;;2.08;;
21432;SDS011;18592;49.708;10.900;2023-07-20T00:59:46;5.53;;;2.65;;
21432;SDS011;18592;49.708;10.900;2023-07-20T01:01:47;2.35;;;1.98;;
21432;SDS011;18592;49.708;10.900;2023-07-20T01:03:48;3.08;;;2.67;;
21432;SDS011;18592;49.708;10.900;2023-07-20T01:05:50;3.47;;;2.25;;
21432;SDS011;18592;49.708;10.900;2023-07-20T01:08:19;2.67;;;2.15;;
21432;SDS011;18592;49.708;10.900;2023-07-20T01:10:57;3.28;;;2.47;;
21432;SDS011;18592;49.708;10.900;2023-07-20T01:13:13;4.47;;;2.75;;
21432;SDS011;18592;49.708;10.900;2023-07-20T01:15:36;2.97;;;2.30;;
21432;SDS011;18592;49.708;10.900;2023-07-20T01:17:37;2.60;;;2.38;;
21432;SDS011;18592;49.708;10.900;2023-07-20T01:19:37;3.28;;;2.70;;
21432;SDS011;18592;49.708;10.900;2023-07-20T01:29:17;3.97;;;2.70;;
21432;SDS011;18592;49.708;10.900;2023-07-20T01:31:30;2.70;;;2.50;;
21432;SDS011;18592;49.708;10.900;2023-07-20T01:33:36;3.40;;;2.42;;
21432;SDS011;18592;49.708;10.900;2023-07-20T01:35:42;3.60;;;2.40;;
21432;SDS011;18592;49.708;10.900;2023-07-20T01:37:47;2.65;;;2.45;;
21432;SDS011;18592;49.708;10.900;2023-07-20T01:39:47;2.55;;;2.22;;
21432;SDS011;18592;49.708;10.900;2023-07-20T01:41:48;3.08;;;2.58;;
21432;SDS011;18592;49.708;10.900;2023-07-20T01:43:49;3.25;;;2.70;;
21432;SDS011;18592;49.708;10.900;2023-07-20T01:45:49;4.15;;;2.50;;
21432;SDS011;18592;49.708;10.900;2023-07-20T01:47:50;3.13;;;2.20;;
21432;SDS011;18592;49.708;10.900;2023-07-20T01:49:50;4.07;;;2.58;;
21432;SDS011;18592;49.708;10.900;2023-07-20T01:51:51;2.72;;;2.30;;
21432;SDS011;18592;49.708;10.900;2023-07-20T01:53:51;2.92;;;2.30;;
21432;SDS011;18592;49.708;10.900;2023-07-20T01:56:12;3.40;;;2.50;;
21432;SDS011;18592;49.708;10.900;2023-07-20T01:58:13;3.60;;;2.47;;
21432;SDS011;18592;49.708;10.900;2023-07-20T02:00:13;4.45;;;2.45;;
21432;SDS011;18592;49.708;10.900;2023-07-20T02:02:23;4.20;;;2.47;;
21432;SDS011;18592;49.708;10.900;2023-07-20T02:04:26;2.88;;;2.50;;
21432;SDS011;18592;49.708;10.900;2023-07-20T02:06:26;4.40;;;2.55;;
21432;SDS011;18592;49.708;10.900;2023-07-20T02:08:42;3.80;;;2.28;;
21432;SDS011;18592;49.708;10.900;2023-07-20T02:10:44;3.00;;;2.35;;
21432;SDS011;18592;49.708;10.900;2023-07-20T02:12:45;3.67;;;2.67;;
21432;SDS011;18592;49.708;10.900;2023-07-20T02:14:46;3.22;;;2.50;;
21432;SDS011;18592;49.708;10.900;2023-07-20T02:16:52;2.92;;;2.60;;
21432;SDS011;18592;49.708;10.900;2023-07-20T02:18:54;3.13;;;2.50;;
21432;SDS011;18592;49.708;10.900;2023-07-20T02:20:57;2.72;;;2.47;;
21432;SDS011;18592;49.708;10.900;2023-07-20T02:22:57;3.72;;;2.42;;
21432;SDS011;18592;49.708;10.900;2023-07-20T02:24:58;3.50;;;2.60;;
21432;SDS011;18592;49.708;10.900;2023-07-20T02:26:58;3.92;;;2.50;;
21432;SDS011;18592;49.708;10.900;2023-07-20T02:28:58;4.00;;;2.40;;
21432;SDS011;18592;49.708;10.900;2023-07-20T02:30:59;3.10;;;2.40;;
21432;SDS011;18592;49.708;10.900;2023-07-20T02:33:00;3.95;;;2.65;;
21432;SDS011;18592;49.708;10.900;2023-07-20T02:35:01;3.58;;;2.50;;
21432;SDS011;18592;49.708;10.900;2023-07-20T02:37:03;4.13;;;2.25;;
21432;SDS011;18592;49.708;10.900;2023-07-20T02:39:04;3.58;;;2.80;;
21432;SDS011;18592;49.708;10.900;2023-07-20T02:41:04;3.33;;;2.25;;
21432;SDS011;18592;49.708;10.900;2023-07-20T02:43:05;2.70;;;2.40;;
21432;SDS011;18592;49.708;10.900;2023-07-20T02:45:05;3.17;;;2.35;;
21432;SDS011;18592;49.708;10.900;2023-07-20T02:47:06;2.63;;;2.38;;
21432;SDS011;18592;49.708;10.900;2023-07-20T02:49:08;2.97;;;2.53;;
21432;SDS011;18592;49.708;10.900;2023-07-20T02:51:09;2.70;;;2.30;;
21432;SDS011;18592;49.708;10.900;2023-07-20T02:53:09;3.80;;;2.42;;
21432;SDS011;18592;49.708;10.900;2023-07-20T02:55:09;5.18;;;2.40;;
21432;SDS011;18592;49.708;10.900;2023-07-20T02:57:11;4.35;;;2.90;;
21432;SDS011;18592;49.708;10.900;2023-07-20T02:59:11;3.97;;;2.53;;
21432;SDS011;18592;49.708;10.900;2023-07-20T03:01:12;3.83;;;2.67;;
21432;SDS011;18592;49.708;10.900;2023-07-20T03:03:12;3.80;;;2.50;;
21432;SDS011;18592;49.708;10.900;2023-07-20T03:05:13;2.42;;;2.22;;
21432;SDS011;18592;49.708;10.900;2023-07-20T03:07:14;3.58;;;2.40;;
21432;SDS011;18592;49.708;10.900;2023-07-20T03:09:14;3.75;;;2.58;;
21432;SDS011;18592;49.708;10.900;2023-07-20T03:11:18;3.33;;;2.53;;
21432;SDS011;18592;49.708;10.900;2023-07-20T03:13:19;4.15;;;2.55;;
21432;SDS011;18592;49.708;10.900;2023-07-20T03:15:20;3.13;;;2.20;;
21432;SDS011;18592;49.708;10.900;2023-07-20T03:17:20;3.83;;;2.72;;
21432;SDS011;18592;49.708;10.900;2023-07-20T03:19:21;3.08;;;2.30;;
21432;SDS011;18592;49.708;10.900;2023-07-20T03:21:21;3.53;;;2.65;;
21432;SDS011;18592;49.708;10.900;2023-07-20T03:23:22;2.67;;;2.40;;
21432;SDS011;18592;49.708;10.900;2023-07-20T03:25:23;4.50;;;2.58;;
21432;SDS011;18592;49.708;10.900;2023-07-20T03:27:24;3.60;;;2.50;;
21432;SDS011;18592;49.708;10.900;2023-07-20T03:29:31;3.95;;;2.40;;
21432;SDS011;18592;49.708;10.900;2023-07-20T03:31:32;3.72;;;2.58;;
21432;SDS011;18592;49.708;10.900;2023-07-20T03:33:33;3.40;;;2.67;;
21432;SDS011;18592;49.708;10.900;2023-07-20T03:35:34;3.20;;;2.08;;
21432;SDS011;18592;49.708;10.900;2023-07-20T03:37:39;4.13;;;2.40;;
21432;SDS011;18592;49.708;10.900;2023-07-20T03:39:40;3.47;;;2.50;;
21432;SDS011;18592;49.708;10.900;2023-07-20T03:41:41;3.17;;;2.78;;
21432;SDS011;18592;49.708;10.900;2023-07-20T03:43:43;4.22;;;2.63;;
21432;SDS011;18592;49.708;10.900;2023-07-20T03:45:44;3.08;;;2.75;;
21432;SDS011;18592;49.708;10.900;2023-07-20T03:47:48;3.08;;;2.30;;
21432;SDS011;18592;49.708;10.900;2023-07-20T03:50:03;4.30;;;2.70;;
21432;SDS011;18592;49.708;10.900;2023-07-20T03:52:06;3.33;;;2.55;;
21432;SDS011;18592;49.708;10.900;2023-07-20T03:54:06;3.13;;;2.50;;
21432;SDS011;18592;49.708;10.900;2023-07-20T03:56:08;3.13;;;2.33;;
21432;SDS011;18592;49.708;10.900;2023-07-20T03:58:08;3.63;;;2.80;;
21432;SDS011;18592;49.708;10.900;2023-07-20T04:00:09;2.85;;;2.30;;
21432;SDS011;18592;49.708;10.900;2023-07-20T04:02:13;2.85;;;2.50;;
21432;SDS011;18592;49.708;10.900;2023-07-20T04:04:16;5.80;;;2.85;;
21432;SDS011;18592;49.708;10.900;2023-07-20T04:06:17;5.05;;;2.80;;
21432;SDS011;18592;49.708;10.900;2023-07-20T04:08:17;3.72;;;2.53;;
21432;SDS011;18592;49.708;10.900;2023-07-20T04:10:18;4.43;;;2.40;;
21432;SDS011;18592;49.708;10.900;2023-07-20T04:12:19;2.72;;;2.35;;
21432;SDS011;18592;49.708;10.900;2023-07-20T04:14:19;3.17;;;2.30;;
21432;SDS011;18592;49.708;10.900;2023-07-20T04:16:20;3.28;;;2.63;;
21432;SDS011;18592;49.708;10.900;2023-07-20T04:18:40;3.85;;;2.33;;
21432;SDS011;18592;49.708;10.900;2023-07-20T04:20:41;3.90;;;2.80;;
21432;SDS011;18592;49.708;10.900;2023-07-20T04:22:42;4.85;;;2.60;;
21432;SDS011;18592;49.708;10.900;2023-07-20T04:24:45;3.47;;;2.60;;
21432;SDS011;18592;49.708;10.900;2023-07-20T04:26:46;2.85;;;2.40;;
21432;SDS011;18592;49.708;10.900;2023-07-20T04:28:47;4.05;;;2.65;;
21432;SDS011;18592;49.708;10.900;2023-07-20T04:31:08;3.72;;;2.65;;
21432;SDS011;18592;49.708;10.900;2023-07-20T04:33:09;3.03;;;2.47;;
21432;SDS011;18592;49.708;10.900;2023-07-20T04:35:10;3.33;;;2.72;;
21432;SDS011;18592;49.708;10.900;2023-07-20T04:37:14;4.68;;;2.92;;
21432;SDS011;18592;49.708;10.900;2023-07-20T04:39:20;4.25;;;2.85;;
21432;SDS011;18592;49.708;10.900;2023-07-20T04:41:20;3.28;;;2.85;;
21432;SDS011;18592;49.708;10.900;2023-07-20T04:43:23;3.97;;;2.75;;
21432;SDS011;18592;49.708;10.900;2023-07-20T04:45:24;3.47;;;2.70;;
21432;SDS011;18592;49.708;10.900;2023-07-20T04:47:25;3.70;;;2.83;;
21432;SDS011;18592;49.708;10.900;2023-07-20T04:49:26;3.50;;;2.72;;
21432;SDS011;18592;49.708;10.900;2023-07-20T04:51:26;3.38;;;2.60;;
21432;SDS011;18592;49.708;10.900;2023-07-20T04:53:29;3.72;;;2.83;;
21432;SDS011;18592;49.708;10.900;2023-07-20T04:55:31;3.28;;;2.65;;
21432;SDS011;18592;49.708;10.900;2023-07-20T04:57:34;4.28;;;2.53;;
21432;SDS011;18592;49.708;10.900;2023-07-20T04:59:34;4.80;;;2.65;;
21432;SDS011;18592;49.708;10.900;2023-07-20T05:01:35;3.55;;;2.53;;
21432;SDS011;18592;49.708;10.900;2023-07-20T05:03:35;3.95;;;2.83;;
21432;SDS011;18592;49.708;10.900;2023-07-20T05:05:50;4.38;;;2.70;;
21432;SDS011;18592;49.708;10.900;2023-07-20T05:07:51;6.72;;;2.80;;
21432;SDS011;18592;49.708;10.900;2023-07-20T05:09:52;3.25;;;2.60;;
21432;SDS011;18592;49.708;10.900;2023-07-20T05:11:53;4.55;;;2.50;;
21432;SDS011;18592;49.708;10.900;2023-07-20T05:13:54;3.08;;;2.70;;
21432;SDS011;18592;49.708;10.900;2023-07-20T05:15:54;3.67;;;2.40;;
21432;SDS011;18592;49.708;10.900;2023-07-20T05:17:55;7.28;;;2.97;;
21432;SDS011;18592;49.708;10.900;2023-07-20T05:19:58;6.03;;;2.95;;
21432;SDS011;18592;49.708;10.900;2023-07-20T05:22:00;3.25;;;2.67;;
21432;SDS011;18592;49.708;10.900;2023-07-20T05:24:01;6.00;;;3.03;;
21432;SDS011;18592;49.708;10.900;2023-07-20T05:26:02;4.93;;;2.65;;
21432;SDS011;18592;49.708;10.900;2023-07-20T05:28:02;4.70;;;2.85;;
21432;SDS011;18592;49.708;10.900;2023-07-20T05:30:03;3.65;;;2.40;;
21432;SDS011;18592;49.708;10.900;2023-07-20T05:32:04;4.75;;;2.72;;
21432;SDS011;18592;49.708;10.900;2023-07-20T05:34:06;4.07;;;2.67;;
21432;SDS011;18592;49.708;10.900;2023-07-20T05:36:07;5.20;;;2.50;;
21432;SDS011;18592;49.708;10.900;2023-07-20T05:38:09;4.03;;;2.50;;
21432;SDS011;18592;49.708;10.900;2023-07-20T05:40:09;4.25;;;2.70;;
21432;SDS011;18592;49.708;10.900;2023-07-20T05:42:12;3.75;;;2.65;;
21432;SDS011;18592;49.708;10.900;2023-07-20T05:44:12;3.95;;;2.42;;
21432;SDS011;18592;49.708;10.900;2023-07-20T05:46:12;4.78;;;2.60;;
21432;SDS011;18592;49.708;10.900;2023-07-20T05:48:13;5.05;;;2.50;;
21432;SDS011;18592;49.708;10.900;2023-07-20T05:50:13;4.35;;;2.60;;
21432;SDS011;18592;49.708;10.900;2023-07-20T05:52:14;3.72;;;2.47;;
21432;SDS011;18592;49.708;10.900;2023-07-20T05:54:15;3.90;;;2.47;;
21432;SDS011;18592;49.708;10.900;2023-07-20T05:56:15;4.63;;;2.60;;
21432;SDS011;18592;49.708;10.900;2023-07-20T05:58:15;2.92;;;2.40;;
21432;SDS011;18592;49.708;10.900;2023-07-20T06:00:21;4.22;;;2.22;;
21432;SDS011;18592;49.708;10.900;2023-07-20T06:02:26;4.47;;;2.78;;
21432;SDS011;18592;49.708;10.900;2023-07-20T06:04:26;2.85;;;2.33;;
21432;SDS011;18592;49.708;10.900;2023-07-20T06:06:27;3.30;;;2.60;;
21432;SDS011;18592;49.708;10.900;2023-07-20T06:08:31;7.40;;;2.60;;
21432;SDS011;18592;49.708;10.900;2023-07-20T06:10:31;3.83;;;2.20;;
21432;SDS011;18592;49.708;10.900;2023-07-20T06:12:31;4.22;;;2.35;;
21432;SDS011;18592;49.708;10.900;2023-07-20T06:14:32;2.35;;;1.88;;
21432;SDS011;18592;49.708;10.900;2023-07-20T06:16:33;3.28;;;2.13;;
21432;SDS011;18592;49.708;10.900;2023-07-20T06:18:33;3.67;;;2.15;;
21432;SDS011;18592;49.708;10.900;2023-07-20T06:20:34;4.57;;;2.13;;
21432;SDS011;18592;49.708;10.900;2023-07-20T06:22:34;3.22;;;2.15;;
21432;SDS011;18592;49.708;10.900;2023-07-20T06:24:36;2.88;;;1.90;;
21432;SDS011;18592;49.708;10.900;2023-07-20T06:26:36;4.22;;;2.50;;
21432;SDS011;18592;49.708;10.900;2023-07-20T06:28:39;2.45;;;2.03;;
21432;SDS011;18592;49.708;10.900;2023-07-20T06:30:39;3.92;;;2.20;;
21432;SDS011;18592;49.708;10.900;2023-07-20T06:32:40;4.40;;;2.30;;
21432;SDS011;18592;49.708;10.900;2023-07-20T06:34:40;2.55;;;2.13;;
21432;SDS011;18592;49.708;10.900;2023-07-20T06:36:41;3.80;;;2.53;;
21432;SDS011;18592;49.708;10.900;2023-07-20T06:38:41;3.95;;;2.08;;
21432;SDS011;18592;49.708;10.900;2023-07-20T06:40:42;3.58;;;2.10;;
21432;SDS011;18592;49.708;10.900;2023-07-20T06:42:42;4.57;;;2.22;;
21432;SDS011;18592;49.708;10.900;2023-07-20T06:44:43;3.90;;;2.38;;
21432;SDS011;18592;49.708;10.900;2023-07-20T06:46:43;3.42;;;2.10;;
21432;SDS011;18592;49.708;10.900;2023-07-20T06:48:44;3.70;;;2.25;;
21432;SDS011;18592;49.708;10.900;2023-07-20T06:51:03;4.32;;;2.28;;
21432;SDS011;18592;49.708;10.900;2023-07-20T06:53:04;2.83;;;2.00;;
21432;SDS011;18592;49.708;10.900;2023-07-20T06:55:04;2.55;;;1.92;;
21432;SDS011;18592;49.708;10.900;2023-07-20T06:57:06;4.20;;;2.08;;
21432;SDS011;18592;49.708;10.900;2023-07-20T06:59:06;3.33;;;2.33;;
21432;SDS011;18592;49.708;10.900;2023-07-20T07:01:11;2.05;;;1.85;;
21432;SDS011;18592;49.708;10.900;2023-07-20T07:03:17;3.10;;;2.20;;
21432;SDS011;18592;49.708;10.900;2023-07-20T07:05:36;2.17;;;1.90;;
21432;SDS011;18592;49.708;10.900;2023-07-20T07:07:37;2.70;;;1.70;;
21432;SDS011;18592;49.708;10.900;2023-07-20T07:09:38;2.53;;;1.70;;
21432;SDS011;18592;49.708;10.900;2023-07-20T07:11:38;2.15;;;1.80;;
21432;SDS011;18592;49.708;10.900;2023-07-20T07:13:38;3.08;;;2.08;;
21432;SDS011;18592;49.708;10.900;2023-07-20T07:15:39;2.75;;;1.73;;
21432;SDS011;18592;49.708;10.900;2023-07-20T07:17:39;2.42;;;1.88;;
21432;SDS011;18592;49.708;10.900;2023-07-20T07:19:40;2.90;;;1.73;;
21432;SDS011;18592;49.708;10.900;2023-07-20T07:21:44;2.53;;;1.73;;
21432;SDS011;18592;49.708;10.900;2023-07-20T07:23:45;2.75;;;1.52;;
21432;SDS011;18592;49.708;10.900;2023-07-20T07:25:45;2.88;;;1.70;;
21432;SDS011;18592;49.708;10.900;2023-07-20T07:27:46;1.95;;;1.67;;
21432;SDS011;18592;49.708;10.900;2023-07-20T07:29:51;2.72;;;1.73;;
21432;SDS011;18592;49.708;10.900;2023-07-20T07:31:52;2.38;;;1.50;;
21432;SDS011;18592;49.708;10.900;2023-07-20T07:33:52;2.05;;;1.50;;
21432;SDS011;18592;49.708;10.900;2023-07-20T07:35:52;2.00;;;1.60;;
21432;SDS011;18592;49.708;10.900;2023-07-20T07:37:53;3.00;;;1.70;;
21432;SDS011;18592;49.708;10.900;2023-07-20T07:39:53;3.33;;;1.77;;
21432;SDS011;18592;49.708;10.900;2023-07-20T07:41:53;2.53;;;1.70;;
21432;SDS011;18592;49.708;10.900;2023-07-20T07:43:54;1.70;;;1.60;;
21432;SDS011;18592;49.708;10.900;2023-07-20T07:45:54;3.28;;;1.75;;
21432;SDS011;18592;49.708;10.900;2023-07-20T07:47:55;2.13;;;1.40;;
21432;SDS011;18592;49.708;10.900;2023-07-20T07:49:56;2.83;;;1.48;;
21432;SDS011;18592;49.708;10.900;2023-07-20T07:51:57;2.10;;;1.60;;
21432;SDS011;18592;49.708;10.900;2023-07-20T07:53:58;1.92;;;1.63;;
21432;SDS011;18592;49.708;10.900;2023-07-20T07:55:59;2.08;;;1.70;;
21432;SDS011;18592;49.708;10.900;2023-07-20T07:58:00;2.50;;;1.52;;
21432;SDS011;18592;49.708;10.900;2023-07-20T08:00:01;2.47;;;1.75;;
21432;SDS011;18592;49.708;10.900;2023-07-20T08:02:01;2.30;;;1.58;;
21432;SDS011;18592;49.708;10.900;2023-07-20T08:04:17;3.35;;;1.70;;
21432;SDS011;18592;49.708;10.900;2023-07-20T08:06:17;2.60;;;1.70;;
21432;SDS011;18592;49.708;10.900;2023-07-20T08:08:28;1.73;;;1.50;;
21432;SDS011;18592;49.708;10.900;2023-07-20T08:10:29;4.15;;;1.90;;
21432;SDS011;18592;49.708;10.900;2023-07-20T08:12:30;2.75;;;1.92;;
21432;SDS011;18592;49.708;10.900;2023-07-20T08:14:30;2.67;;;1.48;;
21432;SDS011;18592;49.708;10.900;2023-07-20T08:16:31;1.92;;;1.75;;
21432;SDS011;18592;49.708;10.900;2023-07-20T08:18:31;3.95;;;1.98;;
21432;SDS011;18592;49.708;10.900;2023-07-20T08:20:32;1.83;;;1.60;;
21432;SDS011;18592;49.708;10.900;2023-07-20T08:22:32;3.13;;;1.70;;
21432;SDS011;18592;49.708;10.900;2023-07-20T08:24:32;2.67;;;1.85;;
21432;SDS011;18592;49.708;10.900;2023-07-20T08:26:33;1.88;;;1.67;;
21432;SDS011;18592;49.708;10.900;2023-07-20T08:28:34;2.97;;;1.60;;
21432;SDS011;18592;49.708;10.900;2023-07-20T08:30:40;2.85;;;1.55;;
21432;SDS011;18592;49.708;10.900;2023-07-20T08:32:43;2.92;;;1.67;;
21432;SDS011;18592;49.708;10.900;2023-07-20T08:34:43;2.80;;;1.60;;
21432;SDS011;18592;49.708;10.900;2023-07-20T08:36:43;1.85;;;1.60;;
21432;SDS011;18592;49.708;10.900;2023-07-20T08:38:44;3.13;;;1.58;;
21432;SDS011;18592;49.708;10.900;2023-07-20T08:40:44;2.10;;;1.58;;
21432;SDS011;18592;49.708;10.900;2023-07-20T08:42:46;1.58;;;1.48;;
21432;SDS011;18592;49.708;10.900;2023-07-20T08:44:46;1.38;;;1.27;;
21432;SDS011;18592;49.708;10.900;2023-07-20T08:46:49;1.83;;;1.40;;
21432;SDS011;18592;49.708;10.900;2023-07-20T08:48:51;1.88;;;1.52;;
21432;SDS011;18592;49.708;10.900;2023-07-20T08:50:53;2.63;;;1.70;;
21432;SDS011;18592;49.708;10.900;2023-07-20T08:52:54;1.88;;;1.50;;
21432;SDS011;18592;49.708;10.900;2023-07-20T08:54:57;1.73;;;1.52;;
21432;SDS011;18592;49.708;10.900;2023-07-20T08:56:58;2.72;;;1.63;;
21432;SDS011;18592;49.708;10.900;2023-07-20T08:59:02;2.80;;;1.45;;
21432;SDS011;18592;49.708;10.900;2023-07-20T09:01:03;2.03;;;1.60;;
21432;SDS011;18592;49.708;10.900;2023-07-20T09:03:03;3.92;;;1.45;;
21432;SDS011;18592;49.708;10.900;2023-07-20T09:05:05;2.58;;;1.50;;
21432;SDS011;18592;49.708;10.900;2023-07-20T09:07:05;2.58;;;1.30;;
21432;SDS011;18592;49.708;10.900;2023-07-20T09:09:06;2.58;;;1.58;;
21432;SDS011;18592;49.708;10.900;2023-07-20T09:11:07;2.95;;;1.20;;
21432;SDS011;18592;49.708;10.900;2023-07-20T09:13:07;1.63;;;1.23;;
21432;SDS011;18592;49.708;10.900;2023-07-20T09:15:08;1.75;;;1.30;;
21432;SDS011;18592;49.708;10.900;2023-07-20T09:17:21;2.80;;;1.40;;
21432;SDS011;18592;49.708;10.900;2023-07-20T09:19:25;1.88;;;1.30;;
21432;SDS011;18592;49.708;10.900;2023-07-20T09:21:28;1.38;;;1.10;;
21432;SDS011;18592;49.708;10.900;2023-07-20T09:23:30;1.70;;;1.58;;
21432;SDS011;18592;49.708;10.900;2023-07-20T09:25:37;1.90;;;1.40;;
21432;SDS011;18592;49.708;10.900;2023-07-20T09:27:38;2.75;;;1.52;;
21432;SDS011;18592;49.708;10.900;2023-07-20T09:29:49;2.58;;;1.50;;
21432;SDS011;18592;49.708;10.900;2023-07-20T09:32:03;1.83;;;1.30;;
21432;SDS011;18592;49.708;10.900;2023-07-20T09:34:04;1.95;;;1.30;;
21432;SDS011;18592;49.708;10.900;2023-07-20T09:36:05;2.05;;;1.30;;
21432;SDS011;18592;49.708;10.900;2023-07-20T09:38:19;2.05;;;1.38;;
21432;SDS011;18592;49.708;10.900;2023-07-20T09:40:28;2.88;;;1.63;;
21432;SDS011;18592;49.708;10.900;2023-07-20T09:42:29;1.52;;;1.23;;
21432;SDS011;18592;49.708;10.900;2023-07-20T09:44:30;1.92;;;1.35;;
21432;SDS011;18592;49.708;10.900;2023-07-20T09:46:40;2.85;;;1.58;;
21432;SDS011;18592;49.708;10.900;2023-07-20T09:48:42;1.88;;;1.42;;
21432;SDS011;18592;49.708;10.900;2023-07-20T09:50:52;1.75;;;1.50;;
21432;SDS011;18592;49.708;10.900;2023-07-20T09:52:53;1.80;;;1.27;;
21432;SDS011;18592;49.708;10.900;2023-07-20T09:54:53;2.30;;;1.30;;
21432;SDS011;18592;49.708;10.900;2023-07-20T09:56:55;2.30;;;1.50;;
21432;SDS011;18592;49.708;10.900;2023-07-20T09:58:56;1.80;;;1.50;;
21432;SDS011;18592;49.708;10.900;2023-07-20T10:00:57;1.40;;;1.30;;
21432;SDS011;18592;49.708;10.900;2023-07-20T10:02:59;2.55;;;1.40;;
21432;SDS011;18592;49.708;10.900;2023-07-20T10:05:18;2.42;;;1.42;;
21432;SDS011;18592;49.708;10.900;2023-07-20T10:07:19;1.90;;;1.60;;
21432;SDS011;18592;49.708;10.900;2023-07-20T10:09:23;3.08;;;1.30;;
21432;SDS011;18592;49.708;10.900;2023-07-20T10:11:25;2.88;;;1.80;;
21432;SDS011;18592;49.708;10.900;2023-07-20T10:13:29;2.28;;;1.77;;
21432;SDS011;18592;49.708;10.900;2023-07-20T10:15:33;4.10;;;1.70;;
21432;SDS011;18592;49.708;10.900;2023-07-20T10:17:37;2.13;;;1.45;;
21432;SDS011;18592;49.708;10.900;2023-07-20T10:19:51;2.50;;;1.35;;
21432;SDS011;18592;49.708;10.900;2023-07-20T10:21:57;1.83;;;1.33;;
21432;SDS011;18592;49.708;10.900;2023-07-20T10:24:03;2.38;;;1.85;;
21432;SDS011;18592;49.708;10.900;2023-07-20T10:26:05;1.73;;;1.63;;
21432;SDS011;18592;49.708;10.900;2023-07-20T10:28:14;2.88;;;1.60;;
21432;SDS011;18592;49.708;10.900;2023-07-20T10:30:16;2.60;;;1.70;;
21432;SDS011;18592;49.708;10.900;2023-07-20T10:32:19;1.60;;;1.50;;
21432;SDS011;18592;49.708;10.900;2023-07-20T10:34:20;3.25;;;1.90;;
21432;SDS011;18592;49.708;10.900;2023-07-20T10:36:24;2.22;;;1.30;;
21432;SDS011;18592;49.708;10.900;2023-07-20T10:38:38;2.88;;;1.45;;
21432;SDS011;18592;49.708;10.900;2023-07-20T10:40:54;1.85;;;1.60;;
21432;SDS011;18592;49.708;10.900;2023-07-20T10:42:59;3.00;;;1.90;;
21432;SDS011;18592;49.708;10.900;2023-07-20T10:45:00;2.47;;;1.70;;
21432;SDS011;18592;49.708;10.900;2023-07-20T10:47:02;2.35;;;1.80;;
21432;SDS011;18592;49.708;10.900;2023-07-20T10:49:06;2.10;;;1.40;;
21432;SDS011;18592;49.708;10.900;2023-07-20T10:51:09;2.33;;;1.63;;
21432;SDS011;18592;49.708;10.900;2023-07-20T10:53:19;2.35;;;1.42;;
21432;SDS011;18592;49.708;10.900;2023-07-20T10:55:19;1.90;;;1.70;;
21432;SDS011;18592;49.708;10.900;2023-07-20T10:57:30;1.73;;;1.60;;
21432;SDS011;18592;49.708;10.900;2023-07-20T11:01:35;1.95;;;1.30;;
21432;SDS011;18592;49.708;10.900;2023-07-20T11:03:37;1.60;;;1.33;;
21432;SDS011;18592;49.708;10.900;2023-07-20T11:05:39;1.40;;;1.27;;
21432;SDS011;18592;49.708;10.900;2023-07-20T11:07:40;1.85;;;1.55;;
21432;SDS011;18592;49.708;10.900;2023-07-20T11:09:41;1.75;;;1.42;;
21432;SDS011;18592;49.708;10.900;2023-07-20T11:11:43;2.78;;;1.38;;
21432;SDS011;18592;49.708;10.900;2023-07-20T11:13:54;1.80;;;1.30;;
21432;SDS011;18592;49.708;10.900;2023-07-20T11:16:02;2.65;;;1.30;;
21432;SDS011;18592;49.708;10.900;2023-07-20T11:18:13;2.28;;;1.30;;
21432;SDS011;18592;49.708;10.900;2023-07-20T11:20:14;1.90;;;1.20;;
21432;SDS011;18592;49.708;10.900;2023-07-20T11:22:16;1.38;;;1.20;;
21432;SDS011;18592;49.708;10.900;2023-07-20T11:24:17;3.08;;;1.45;;
21432;SDS011;18592;49.708;10.900;2023-07-20T11:26:19;2.13;;;1.48;;
21432;SDS011;18592;49.708;10.900;2023-07-20T11:28:24;1.42;;;1.23;;
21432;SDS011;18592;49.708;10.900;2023-07-20T11:30:24;1.33;;;1.20;;
21432;SDS011;18592;49.708;10.900;2023-07-20T11:32:30;1.35;;;1.25;;
21432;SDS011;18592;49.708;10.900;2023-07-20T11:34:31;1.70;;;1.10;;
21432;SDS011;18592;49.708;10.900;2023-07-20T11:36:33;1.73;;;1.40;;
21432;SDS011;18592;49.708;10.900;2023-07-20T11:38:33;1.77;;;1.20;;
21432;SDS011;18592;49.708;10.900;2023-07-20T11:40:34;2.28;;;1.42;;
21432;SDS011;18592;49.708;10.900;2023-07-20T11:42:34;2.03;;;1.33;;
21432;SDS011;18592;49.708;10.900;2023-07-20T11:44:35;2.40;;;1.20;;
21432;SDS011;18592;49.708;10.900;2023-07-20T11:46:35;1.50;;;1.40;;
21432;SDS011;18592;49.708;10.900;2023-07-20T11:48:36;1.50;;;1.27;;
21432;SDS011;18592;49.708;10.900;2023-07-20T11:50:39;1.52;;;1.23;;
21432;SDS011;18592;49.708;10.900;2023-07-20T11:52:40;1.90;;;1.30;;
21432;SDS011;18592;49.708;10.900;2023-07-20T11:54:41;1.85;;;1.40;;
21432;SDS011;18592;49.708;10.900;2023-07-20T11:56:43;2.05;;;1.20;;
21432;SDS011;18592;49.708;10.900;2023-07-20T11:58:44;5.32;;;1.48;;
21432;SDS011;18592;49.708;10.900;2023-07-20T12:00:45;2.17;;;1.40;;
21432;SDS011;18592;49.708;10.900;2023-07-20T12:02:46;2.30;;;1.58;;
21432;SDS011;18592;49.708;10.900;2023-07-20T12:04:47;2.33;;;1.40;;
21432;SDS011;18592;49.708;10.900;2023-07-20T12:06:48;2.33;;;1.60;;
21432;SDS011;18592;49.708;10.900;2023-07-20T12:08:48;1.95;;;1.50;;
21432;SDS011;18592;49.708;10.900;2023-07-20T12:10:49;1.30;;;1.10;;
21432;SDS011;18592;49.708;10.900;2023-07-20T12:12:50;1.60;;;1.38;;
21432;SDS011;18592;49.708;10.900;2023-07-20T12:25:40;2.08;;;1.25;;
21432;SDS011;18592;49.708;10.900;2023-07-20T12:27:50;4.20;;;1.08;;